createdAt,value
2018-06-02T00:00:55.454Z,1007.08
2018-06-02T00:01:55.461Z,1007.05
2018-06-02T00:02:55.462Z,1007.08
2018-06-02T00:03:55.475Z,1007.08
2018-06-02T00:04:55.517Z,1007.11
2018-06-02T00:05:55.471Z,1007.08
2018-06-02T00:06:55.477Z,1007.11
2018-06-02T00:07:55.477Z,1007.11
2018-06-02T00:08:55.481Z,1007.13
2018-06-02T00:09:55.485Z,1007.11
2018-06-02T00:10:55.492Z,1007.09
2018-06-02T00:11:55.491Z,1007.06
2018-06-02T00:12:55.495Z,1007.06
2018-06-02T00:13:55.498Z,1007.11
2018-06-02T00:14:55.501Z,1007.08
2018-06-02T00:15:55.504Z,1007.09
2018-06-02T00:16:55.508Z,1007.17
2018-06-02T00:17:55.513Z,1007.17
2018-06-02T00:18:55.518Z,1007.12
2018-06-02T00:19:55.517Z,1007.11
2018-06-02T00:20:55.520Z,1007.17
2018-06-02T00:21:55.525Z,1007.17
2018-06-02T00:22:55.528Z,1007.12
2018-06-02T00:23:55.530Z,1007.19
2018-06-02T00:24:55.533Z,1007.16
2018-06-02T00:25:55.538Z,1007.15
2018-06-02T00:26:55.541Z,1007.15
2018-06-02T00:27:55.543Z,1007.14
2018-06-02T00:28:55.547Z,1007.17
2018-06-02T00:29:55.550Z,1007.14
2018-06-02T00:30:55.554Z,1007.17
2018-06-02T00:31:55.556Z,1007.22
2018-06-02T00:32:55.560Z,1007.17
2018-06-02T00:33:55.567Z,1007.17
2018-06-02T00:34:55.566Z,1007.18
2018-06-02T00:35:55.570Z,1007.16
2018-06-02T00:36:55.573Z,1007.15
2018-06-02T00:37:55.576Z,1007.13
2018-06-02T00:38:55.579Z,1007.12
2018-06-02T00:39:55.581Z,1007.14
2018-06-02T00:40:55.585Z,1007.16
2018-06-02T00:41:55.592Z,1007.17
2018-06-02T00:42:55.595Z,1007.18
2018-06-02T00:43:55.594Z,1007.13
2018-06-02T00:44:55.600Z,1007.14
2018-06-02T00:45:55.601Z,1007.16
2018-06-02T00:46:55.603Z,1007.14
2018-06-02T00:47:55.608Z,1007.13
2018-06-02T00:48:55.609Z,1007.16
2018-06-02T00:49:55.613Z,1007.16
2018-06-02T00:50:55.616Z,1007.12
2018-06-02T00:51:55.619Z,1007.14
2018-06-02T00:52:55.622Z,1007.13
2018-06-02T00:53:55.625Z,1007.12
2018-06-02T00:54:55.633Z,1007.16
2018-06-02T00:55:55.631Z,1007.07
2018-06-02T00:56:55.634Z,1007.08
2018-06-02T00:57:55.637Z,1007.06
2018-06-02T00:58:55.640Z,1007.06
2018-06-02T00:59:55.643Z,1007.04
2018-06-02T01:00:55.646Z,1007.05
2018-06-02T01:01:55.650Z,1006.98
2018-06-02T01:02:55.652Z,1006.98
2018-06-02T01:03:55.655Z,1006.97
2018-06-02T01:04:55.657Z,1006.97
2018-06-02T01:05:55.661Z,1006.97
2018-06-02T01:06:55.665Z,1006.97
2018-06-02T01:07:55.669Z,1006.92
2018-06-02T01:08:55.670Z,1006.97
2018-06-02T01:09:55.673Z,1006.93
2018-06-02T01:10:55.675Z,1006.94
2018-06-02T01:11:55.677Z,1006.97
2018-06-02T01:12:55.681Z,1006.99
2018-06-02T01:13:55.683Z,1006.96
2018-06-02T01:14:55.687Z,1006.98
2018-06-02T01:15:55.691Z,1007.01
2018-06-02T01:16:55.693Z,1006.99
2018-06-02T01:17:55.695Z,1007.03
2018-06-02T01:18:55.701Z,1007.00
2018-06-02T01:19:55.704Z,1006.98
2018-06-02T01:20:55.774Z,1007.01
2018-06-02T01:21:55.706Z,1007.01
2018-06-02T01:22:55.709Z,1006.98
2018-06-02T01:23:55.712Z,1006.96
2018-06-02T01:24:55.715Z,1006.98
2018-06-02T01:25:55.717Z,1006.94
2018-06-02T01:26:55.722Z,1006.91
2018-06-02T01:27:55.724Z,1006.91
2018-06-02T01:28:55.729Z,1006.90
2018-06-02T01:29:55.729Z,1006.88
2018-06-02T01:30:55.733Z,1006.91
2018-06-02T01:31:55.734Z,1006.89
2018-06-02T01:32:55.740Z,1006.94
2018-06-02T01:33:55.741Z,1007.00
2018-06-02T01:34:55.744Z,1006.96
2018-06-02T01:35:55.746Z,1006.94
2018-06-02T01:36:55.749Z,1006.93
2018-06-02T01:37:55.753Z,1006.92
2018-06-02T01:38:55.756Z,1006.92
2018-06-02T01:39:55.758Z,1006.94
2018-06-02T01:40:55.765Z,1006.92
2018-06-02T01:41:55.763Z,1006.92
2018-06-02T01:42:55.799Z,1006.94
2018-06-02T01:43:55.768Z,1006.91
2018-06-02T01:44:55.773Z,1006.95
2018-06-02T01:45:55.775Z,1006.95
2018-06-02T01:46:55.778Z,1006.92
2018-06-02T01:47:55.781Z,1006.95
2018-06-02T01:48:55.785Z,1006.95
2018-06-02T01:49:55.793Z,1006.93
2018-06-02T01:50:55.790Z,1006.90
2018-06-02T01:51:55.792Z,1006.91
2018-06-02T01:52:55.795Z,1006.97
2018-06-02T01:53:55.799Z,1006.91
2018-06-02T01:54:55.801Z,1006.91
2018-06-02T01:55:55.804Z,1006.92
2018-06-02T01:56:55.808Z,1006.90
2018-06-02T01:57:55.810Z,1006.95
2018-06-02T01:58:55.816Z,1006.92
2018-06-02T01:59:55.815Z,1006.90
2018-06-02T02:00:55.821Z,1006.90
2018-06-02T02:01:55.821Z,1006.91
2018-06-02T02:02:55.824Z,1006.92
2018-06-02T02:03:55.828Z,1006.87
2018-06-02T02:04:55.829Z,1006.89
2018-06-02T02:05:55.836Z,1006.89
2018-06-02T02:06:55.835Z,1006.88
2018-06-02T02:07:55.837Z,1006.88
2018-06-02T02:08:55.840Z,1006.82
2018-06-02T02:09:55.844Z,1006.87
2018-06-02T02:10:55.849Z,1006.90
2018-06-02T02:11:55.849Z,1006.90
2018-06-02T02:12:55.853Z,1006.87
2018-06-02T02:13:55.855Z,1006.86
2018-06-02T02:14:55.858Z,1006.91
2018-06-02T02:15:55.860Z,1006.87
2018-06-02T02:16:55.863Z,1006.85
2018-06-02T02:17:55.866Z,1006.80
2018-06-02T02:18:55.868Z,1006.85
2018-06-02T02:19:55.871Z,1006.80
2018-06-02T02:20:55.874Z,1006.83
2018-06-02T02:21:55.878Z,1006.83
2018-06-02T02:22:55.880Z,1006.86
2018-06-02T02:23:55.882Z,1006.81
2018-06-02T02:24:55.885Z,1006.81
2018-06-02T02:25:55.888Z,1006.83
2018-06-02T02:26:55.891Z,1006.82
2018-06-02T02:27:55.894Z,1006.82
2018-06-02T02:28:55.895Z,1006.77
2018-06-02T02:29:55.898Z,1006.79
2018-06-02T02:30:55.901Z,1006.76
2018-06-02T02:31:55.903Z,1006.77
2018-06-02T02:32:55.906Z,1006.76
2018-06-02T02:33:55.909Z,1006.78
2018-06-02T02:34:55.913Z,1006.70
2018-06-02T02:35:55.918Z,1006.81
2018-06-02T02:36:55.917Z,1006.76
2018-06-02T02:37:55.920Z,1006.76
2018-06-02T02:38:55.926Z,1006.79
2018-06-02T02:39:55.924Z,1006.83
2018-06-02T02:40:55.927Z,1006.77
2018-06-02T02:41:55.931Z,1006.79
2018-06-02T02:42:55.933Z,1006.81
2018-06-02T02:43:55.936Z,1006.83
2018-06-02T02:44:55.937Z,1006.77
2018-06-02T02:45:55.940Z,1006.81
2018-06-02T02:46:55.944Z,1006.84
2018-06-02T02:47:55.944Z,1006.80
2018-06-02T02:48:55.949Z,1006.83
2018-06-02T02:49:55.951Z,1006.80
2018-06-02T02:50:55.959Z,1006.79
2018-06-02T02:51:55.961Z,1006.77
2018-06-02T02:52:55.959Z,1006.77
2018-06-02T02:53:55.962Z,1006.79
2018-06-02T02:54:55.964Z,1006.82
2018-06-02T02:55:55.969Z,1006.82
2018-06-02T02:56:55.969Z,1006.87
2018-06-02T02:57:55.972Z,1006.86
2018-06-02T02:58:55.974Z,1006.81
2018-06-02T02:59:55.976Z,1006.86
2018-06-02T03:00:55.979Z,1006.86
2018-06-02T03:01:55.981Z,1006.87
2018-06-02T03:02:55.994Z,1006.90
2018-06-02T03:03:55.988Z,1006.88
2018-06-02T03:04:55.992Z,1006.89
2018-06-02T03:05:55.994Z,1006.89
2018-06-02T03:06:55.996Z,1006.93
2018-06-02T03:07:55.998Z,1006.95
2018-06-02T03:08:56.000Z,1006.95
2018-06-02T03:09:56.003Z,1006.92
2018-06-02T03:10:56.005Z,1006.94
2018-06-02T03:11:56.007Z,1006.93
2018-06-02T03:12:56.012Z,1006.94
2018-06-02T03:13:56.013Z,1006.95
2018-06-02T03:14:56.017Z,1006.94
2018-06-02T03:15:56.021Z,1006.98
2018-06-02T03:16:56.020Z,1006.92
2018-06-02T03:17:56.023Z,1006.94
2018-06-02T03:18:56.029Z,1006.94
2018-06-02T03:19:56.042Z,1006.90
2018-06-02T03:20:56.030Z,1006.90
2018-06-02T03:21:56.036Z,1006.95
2018-06-02T03:22:56.036Z,1006.88
2018-06-02T03:23:56.039Z,1006.89
2018-06-02T03:24:56.041Z,1006.94
2018-06-02T03:25:56.044Z,1006.94
2018-06-02T03:26:56.057Z,1006.97
2018-06-02T03:27:56.049Z,1006.95
2018-06-02T03:28:56.053Z,1006.96
2018-06-02T03:29:56.054Z,1006.95
2018-06-02T03:30:56.060Z,1006.93
2018-06-02T03:31:56.058Z,1006.97
2018-06-02T03:32:56.061Z,1006.95
2018-06-02T03:33:56.063Z,1006.94
2018-06-02T03:34:56.066Z,1006.96
2018-06-02T03:35:56.068Z,1006.94
2018-06-02T03:36:56.075Z,1006.92
2018-06-02T03:37:56.073Z,1006.93
2018-06-02T03:38:56.076Z,1006.94
2018-06-02T03:39:56.077Z,1006.95
2018-06-02T03:40:56.083Z,1006.91
2018-06-02T03:41:56.083Z,1006.96
2018-06-02T03:42:56.086Z,1006.92
2018-06-02T03:43:56.088Z,1006.91
2018-06-02T03:44:56.090Z,1006.92
2018-06-02T03:45:56.094Z,1006.95
2018-06-02T03:46:56.096Z,1006.93
2018-06-02T03:47:56.098Z,1006.89
2018-06-02T03:48:56.101Z,1006.95
2018-06-02T03:49:56.103Z,1006.95
2018-06-02T03:50:56.106Z,1006.92
2018-06-02T03:51:56.110Z,1006.96
2018-06-02T03:52:56.109Z,1006.95
2018-06-02T03:53:56.114Z,1006.98
2018-06-02T03:54:56.119Z,1006.94
2018-06-02T03:55:56.119Z,1006.95
2018-06-02T03:56:56.122Z,1006.94
2018-06-02T03:57:56.129Z,1006.89
2018-06-02T03:58:56.128Z,1006.90
2018-06-02T03:59:56.132Z,1006.92
2018-06-02T04:00:56.132Z,1006.87
2018-06-02T04:01:56.137Z,1006.89
2018-06-02T04:02:56.139Z,1006.87
2018-06-02T04:03:56.139Z,1006.93
2018-06-02T04:04:56.143Z,1006.92
2018-06-02T04:05:56.152Z,1006.97
2018-06-02T04:06:56.151Z,1007.00
2018-06-02T04:07:56.152Z,1007.01
2018-06-02T04:08:56.155Z,1006.97
2018-06-02T04:09:56.157Z,1006.98
2018-06-02T04:10:56.164Z,1007.02
2018-06-02T04:11:56.162Z,1006.99
2018-06-02T04:12:56.166Z,1006.99
2018-06-02T04:13:56.169Z,1007.03
2018-06-02T04:14:56.172Z,1007.01
2018-06-02T04:15:56.208Z,1007.03
2018-06-02T04:16:56.180Z,1007.06
2018-06-02T04:17:56.180Z,1007.01
2018-06-02T04:18:56.185Z,1007.07
2018-06-02T04:19:56.184Z,1007.09
2018-06-02T04:20:56.189Z,1007.09
2018-06-02T04:21:56.192Z,1007.10
2018-06-02T04:22:56.195Z,1007.09
2018-06-02T04:23:56.197Z,1007.11
2018-06-02T04:24:56.201Z,1007.13
2018-06-02T04:25:56.205Z,1007.09
2018-06-02T04:26:56.207Z,1007.12
2018-06-02T04:27:56.208Z,1007.15
2018-06-02T04:28:56.213Z,1007.15
2018-06-02T04:29:56.222Z,1007.14
2018-06-02T04:30:56.219Z,1007.12
2018-06-02T04:31:56.223Z,1007.15
2018-06-02T04:32:56.224Z,1007.13
2018-06-02T04:33:56.226Z,1007.14
2018-06-02T04:34:56.230Z,1007.12
2018-06-02T04:35:56.231Z,1007.12
2018-06-02T04:36:56.235Z,1007.09
2018-06-02T04:37:56.243Z,1007.11
2018-06-02T04:38:56.241Z,1007.09
2018-06-02T04:39:56.243Z,1007.09
2018-06-02T04:40:56.254Z,1007.10
2018-06-02T04:41:56.250Z,1007.06
2018-06-02T04:42:56.253Z,1007.11
2018-06-02T04:43:56.255Z,1007.11
2018-06-02T04:44:56.258Z,1007.11
2018-06-02T04:45:56.265Z,1007.12
2018-06-02T04:46:56.266Z,1007.12
2018-06-02T04:47:56.269Z,1007.17
2018-06-02T04:48:56.272Z,1007.15
2018-06-02T04:49:56.273Z,1007.18
2018-06-02T04:50:56.276Z,1007.17
2018-06-02T04:51:56.278Z,1007.20
2018-06-02T04:52:56.292Z,1007.24
2018-06-02T04:53:56.285Z,1007.25
2018-06-02T04:54:56.288Z,1007.26
2018-06-02T04:55:56.290Z,1007.23
2018-06-02T04:56:56.341Z,1007.26
2018-06-02T04:57:56.297Z,1007.27
2018-06-02T04:58:56.300Z,1007.26
2018-06-02T04:59:56.301Z,1007.28
2018-06-02T05:00:56.305Z,1007.29
2018-06-02T05:01:56.308Z,1007.28
2018-06-02T05:02:56.312Z,1007.27
2018-06-02T05:03:56.315Z,1007.32
2018-06-02T05:04:56.317Z,1007.34
2018-06-02T05:05:56.320Z,1007.33
2018-06-02T05:06:56.325Z,1007.31
2018-06-02T05:07:56.325Z,1007.33
2018-06-02T05:08:56.328Z,1007.32
2018-06-02T05:09:56.332Z,1007.36
2018-06-02T05:10:56.335Z,1007.33
2018-06-02T05:11:56.338Z,1007.37
2018-06-02T05:12:56.342Z,1007.33
2018-06-02T05:13:56.345Z,1007.34
2018-06-02T05:14:56.348Z,1007.37
2018-06-02T05:15:56.350Z,1007.38
2018-06-02T05:16:56.353Z,1007.37
2018-06-02T05:17:56.356Z,1007.38
2018-06-02T05:18:56.360Z,1007.39
2018-06-02T05:19:56.361Z,1007.40
2018-06-02T05:20:56.366Z,1007.44
2018-06-02T05:21:56.369Z,1007.45
2018-06-02T05:22:56.373Z,1007.45
2018-06-02T05:23:56.375Z,1007.49
2018-06-02T05:24:56.378Z,1007.47
2018-06-02T05:25:56.382Z,1007.48
2018-06-02T05:26:56.383Z,1007.49
2018-06-02T05:27:56.387Z,1007.46
2018-06-02T05:28:56.389Z,1007.50
2018-06-02T05:29:56.393Z,1007.52
2018-06-02T05:30:56.396Z,1007.56
2018-06-02T05:31:56.399Z,1007.55
2018-06-02T05:32:56.402Z,1007.60
2018-06-02T05:33:56.404Z,1007.51
2018-06-02T05:34:56.409Z,1007.56
2018-06-02T05:35:56.411Z,1007.56
2018-06-02T05:36:56.414Z,1007.53
2018-06-02T05:37:56.418Z,1007.56
2018-06-02T05:38:56.421Z,1007.57
2018-06-02T05:39:56.425Z,1007.58
2018-06-02T05:40:56.427Z,1007.59
2018-06-02T05:41:56.431Z,1007.59
2018-06-02T05:42:56.434Z,1007.55
2018-06-02T05:43:56.436Z,1007.56
2018-06-02T05:44:56.439Z,1007.59
2018-06-02T05:45:56.455Z,1007.59
2018-06-02T05:46:56.453Z,1007.58
2018-06-02T05:47:56.449Z,1007.60
2018-06-02T05:48:56.452Z,1007.59
2018-06-02T05:49:56.455Z,1007.62
2018-06-02T05:50:56.459Z,1007.62
2018-06-02T05:51:56.461Z,1007.60
2018-06-02T05:52:56.465Z,1007.65
2018-06-02T05:53:56.468Z,1007.66
2018-06-02T05:54:56.471Z,1007.63
2018-06-02T05:55:56.472Z,1007.67
2018-06-02T05:56:56.477Z,1007.59
2018-06-02T05:57:56.486Z,1007.57
2018-06-02T05:58:56.484Z,1007.63
2018-06-02T05:59:56.525Z,1007.57
2018-06-02T06:00:56.490Z,1007.61
2018-06-02T06:01:56.493Z,1007.62
2018-06-02T06:02:56.497Z,1007.63
2018-06-02T06:03:56.500Z,1007.69
2018-06-02T06:04:56.504Z,1007.66
2018-06-02T06:05:56.508Z,1007.68
2018-06-02T06:06:56.510Z,1007.69
2018-06-02T06:07:56.517Z,1007.71
2018-06-02T06:08:56.517Z,1007.71
2018-06-02T06:09:56.519Z,1007.70
2018-06-02T06:10:56.524Z,1007.68
2018-06-02T06:11:56.527Z,1007.66
2018-06-02T06:12:56.529Z,1007.69
2018-06-02T06:13:56.533Z,1007.71
2018-06-02T06:14:56.540Z,1007.69
2018-06-02T06:15:56.542Z,1007.71
2018-06-02T06:16:56.544Z,1007.69
2018-06-02T06:17:56.550Z,1007.69
2018-06-02T06:18:56.550Z,1007.70
2018-06-02T06:19:56.556Z,1007.66
2018-06-02T06:20:56.556Z,1007.66
2018-06-02T06:21:56.559Z,1007.64
2018-06-02T06:22:56.565Z,1007.63
2018-06-02T06:23:56.570Z,1007.65
2018-06-02T06:24:56.573Z,1007.61
2018-06-02T06:25:56.576Z,1007.62
2018-06-02T06:26:56.643Z,1007.66
2018-06-02T06:27:56.578Z,1007.64
2018-06-02T06:28:56.582Z,1007.63
2018-06-02T06:29:56.585Z,1007.64
2018-06-02T06:30:56.589Z,1007.66
2018-06-02T06:31:56.596Z,1007.69
2018-06-02T06:32:56.618Z,1007.70
2018-06-02T06:33:56.598Z,1007.63
2018-06-02T06:34:56.602Z,1007.64
2018-06-02T06:35:56.604Z,1007.67
2018-06-02T06:36:56.608Z,1007.67
2018-06-02T06:37:56.612Z,1007.65
2018-06-02T06:38:56.614Z,1007.69
2018-06-02T06:39:56.617Z,1007.68
2018-06-02T06:40:56.621Z,1007.68
2018-06-02T06:41:56.624Z,1007.72
2018-06-02T06:42:56.632Z,1007.71
2018-06-02T06:43:56.631Z,1007.71
2018-06-02T06:44:56.634Z,1007.72
2018-06-02T06:45:56.637Z,1007.79
2018-06-02T06:46:56.641Z,1007.74
2018-06-02T06:47:56.645Z,1007.76
2018-06-02T06:48:56.647Z,1007.74
2018-06-02T06:49:56.651Z,1007.81
2018-06-02T06:50:56.653Z,1007.81
2018-06-02T06:51:56.657Z,1007.83
2018-06-02T06:52:56.660Z,1007.85
2018-06-02T06:53:56.666Z,1007.85
2018-06-02T06:54:56.666Z,1007.85
2018-06-02T06:55:56.670Z,1007.88
2018-06-02T06:56:56.674Z,1007.88
2018-06-02T06:57:56.676Z,1007.83
2018-06-02T06:58:56.687Z,1007.88
2018-06-02T06:59:56.683Z,1007.91
2018-06-02T07:00:56.686Z,1007.89
2018-06-02T07:01:56.690Z,1007.88
2018-06-02T07:02:56.693Z,1007.94
2018-06-02T07:03:56.696Z,1007.91
2018-06-02T07:04:56.700Z,1007.91
2018-06-02T07:05:56.708Z,1007.96
2018-06-02T07:06:56.714Z,1007.92
2018-06-02T07:07:56.710Z,1007.91
2018-06-02T07:08:56.765Z,1007.91
2018-06-02T07:09:56.716Z,1007.91
2018-06-02T07:10:56.720Z,1007.91
2018-06-02T07:11:56.768Z,1007.91
2018-06-02T07:12:56.726Z,1007.90
2018-06-02T07:13:56.730Z,1007.90
2018-06-02T07:14:56.733Z,1007.89
2018-06-02T07:15:56.736Z,1007.93
2018-06-02T07:16:56.749Z,1007.95
2018-06-02T07:17:56.746Z,1007.94
2018-06-02T07:18:56.747Z,1007.95
2018-06-02T07:19:56.750Z,1007.93
2018-06-02T07:20:56.754Z,1007.94
2018-06-02T07:21:56.758Z,1007.93
2018-06-02T07:22:56.761Z,1007.97
2018-06-02T07:23:56.764Z,1007.95
2018-06-02T07:24:56.833Z,1008.06
2018-06-02T07:25:56.771Z,1008.02
2018-06-02T07:26:56.775Z,1007.98
2018-06-02T07:27:56.777Z,1008.03
2018-06-02T07:28:56.781Z,1008.06
2018-06-02T07:29:56.784Z,1008.00
2018-06-02T07:30:56.789Z,1008.00
2018-06-02T07:31:56.791Z,1008.04
2018-06-02T07:32:56.794Z,1007.99
2018-06-02T07:33:56.798Z,1007.97
2018-06-02T07:34:56.802Z,1008.01
2018-06-02T07:35:56.804Z,1008.01
2018-06-02T07:36:56.809Z,1008.00
2018-06-02T07:37:56.813Z,1008.00
2018-06-02T07:38:56.819Z,1007.99
2018-06-02T07:39:56.819Z,1008.03
2018-06-02T07:40:56.824Z,1008.03
2018-06-02T07:41:56.826Z,1008.00
2018-06-02T07:42:56.830Z,1008.03
2018-06-02T07:43:56.835Z,1008.02
2018-06-02T07:44:56.836Z,1007.99
2018-06-02T07:45:56.841Z,1007.95
2018-06-02T07:46:56.845Z,1007.97
2018-06-02T07:47:56.847Z,1007.97
2018-06-02T07:48:56.851Z,1007.98
2018-06-02T07:49:56.878Z,1007.97
2018-06-02T07:50:56.860Z,1007.94
2018-06-02T07:51:56.864Z,1007.98
2018-06-02T07:52:56.866Z,1007.97
2018-06-02T07:53:56.870Z,1007.95
2018-06-02T07:54:56.874Z,1007.97
2018-06-02T07:55:56.877Z,1007.99
2018-06-02T07:56:56.881Z,1007.96
2018-06-02T07:57:56.885Z,1007.92
2018-06-02T07:58:56.890Z,1007.99
2018-06-02T07:59:56.892Z,1007.97
2018-06-02T08:00:56.897Z,1007.92
2018-06-02T08:01:56.900Z,1008.01
2018-06-02T08:02:56.904Z,1007.98
2018-06-02T08:03:56.909Z,1007.96
2018-06-02T08:04:56.912Z,1007.98
2018-06-02T08:05:56.916Z,1007.94
2018-06-02T08:06:56.921Z,1007.96
2018-06-02T08:07:56.924Z,1007.96
2018-06-02T08:08:56.928Z,1007.94
2018-06-02T08:09:56.933Z,1007.92
2018-06-02T08:10:56.937Z,1007.93
2018-06-02T08:11:56.940Z,1007.95
2018-06-02T08:12:56.946Z,1007.94
2018-06-02T08:13:56.950Z,1007.90
2018-06-02T08:14:56.955Z,1007.89
2018-06-02T08:15:56.959Z,1007.89
2018-06-02T08:16:56.963Z,1007.89
2018-06-02T08:17:56.968Z,1007.92
2018-06-02T08:18:56.973Z,1007.90
2018-06-02T08:19:56.976Z,1007.88
2018-06-02T08:20:56.982Z,1007.90
2018-06-02T08:21:56.987Z,1007.95
2018-06-02T08:22:56.990Z,1007.90
2018-06-02T08:23:56.995Z,1007.92
2018-06-02T08:24:57.000Z,1007.97
2018-06-02T08:25:57.005Z,1007.98
2018-06-02T08:26:57.009Z,1007.94
2018-06-02T08:27:57.014Z,1007.96
2018-06-02T08:28:57.019Z,1007.96
2018-06-02T08:29:57.024Z,1007.98
2018-06-02T08:30:57.029Z,1008.07
2018-06-02T08:31:57.033Z,1008.05
2018-06-02T08:32:57.039Z,1008.03
2018-06-02T08:33:57.049Z,1008.07
2018-06-02T08:34:57.049Z,1008.08
2018-06-02T08:35:57.053Z,1008.07
2018-06-02T08:36:57.058Z,1008.05
2018-06-02T08:37:57.064Z,1008.13
2018-06-02T08:38:57.107Z,1008.05
2018-06-02T08:39:57.073Z,1008.07
2018-06-02T08:40:57.083Z,1008.12
2018-06-02T08:41:57.084Z,1008.10
2018-06-02T08:42:57.089Z,1008.11
2018-06-02T08:43:57.095Z,1008.04
2018-06-02T08:44:57.100Z,1008.14
2018-06-02T08:45:57.105Z,1008.09
2018-06-02T08:46:57.112Z,1008.12
2018-06-02T08:47:57.115Z,1008.13
2018-06-02T08:48:57.121Z,1008.13
2018-06-02T08:49:57.126Z,1008.17
2018-06-02T08:50:57.132Z,1008.14
2018-06-02T08:51:57.137Z,1008.19
2018-06-02T08:52:57.145Z,1008.20
2018-06-02T08:53:57.147Z,1008.24
2018-06-02T08:54:57.154Z,1008.27
2018-06-02T08:55:57.158Z,1008.29
2018-06-02T08:56:57.164Z,1008.30
2018-06-02T08:57:57.171Z,1008.35
2018-06-02T08:58:57.176Z,1008.34
2018-06-02T08:59:57.180Z,1008.30
2018-06-02T09:00:57.186Z,1008.29
2018-06-02T09:01:57.191Z,1008.30
2018-06-02T09:02:57.197Z,1008.27
2018-06-02T09:03:57.202Z,1008.24
2018-06-02T09:04:57.209Z,1008.32
2018-06-02T09:05:57.215Z,1008.32
2018-06-02T09:06:57.219Z,1008.31
2018-06-02T09:07:57.225Z,1008.29
2018-06-02T09:08:57.232Z,1008.30
2018-06-02T09:09:57.237Z,1008.24
2018-06-02T09:10:57.244Z,1008.27
2018-06-02T09:11:57.251Z,1008.29
2018-06-02T09:12:57.255Z,1008.29
2018-06-02T09:13:57.261Z,1008.32
2018-06-02T09:14:57.267Z,1008.31
2018-06-02T09:15:57.273Z,1008.31
2018-06-02T09:16:57.279Z,1008.33
2018-06-02T09:17:57.286Z,1008.29
2018-06-02T09:18:57.291Z,1008.31
2018-06-02T09:19:57.297Z,1008.27
2018-06-02T09:20:57.303Z,1008.31
2018-06-02T09:21:57.309Z,1008.35
2018-06-02T09:22:57.315Z,1008.30
2018-06-02T09:23:57.322Z,1008.31
2018-06-02T09:24:57.329Z,1008.33
2018-06-02T09:25:57.335Z,1008.36
2018-06-02T09:26:57.339Z,1008.35
2018-06-02T09:27:57.409Z,1008.33
2018-06-02T09:28:57.352Z,1008.35
2018-06-02T09:29:57.361Z,1008.36
2018-06-02T09:30:57.363Z,1008.36
2018-06-02T09:31:57.369Z,1008.42
2018-06-02T09:32:57.378Z,1008.36
2018-06-02T09:33:57.381Z,1008.35
2018-06-02T09:34:57.429Z,1008.35
2018-06-02T09:35:57.393Z,1008.37
2018-06-02T09:36:57.400Z,1008.36
2018-06-02T09:37:57.406Z,1008.42
2018-06-02T09:38:57.415Z,1008.37
2018-06-02T09:39:57.417Z,1008.36
2018-06-02T09:40:57.424Z,1008.42
2018-06-02T09:41:57.430Z,1008.36
2018-06-02T09:42:57.437Z,1008.39
2018-06-02T09:43:57.442Z,1008.37
2018-06-02T09:44:57.450Z,1008.35
2018-06-02T09:45:57.456Z,1008.36
2018-06-02T09:46:57.461Z,1008.40
2018-06-02T09:47:57.470Z,1008.42
2018-06-02T09:48:57.474Z,1008.43
2018-06-02T09:49:57.480Z,1008.43
2018-06-02T09:50:57.485Z,1008.44
2018-06-02T09:51:57.492Z,1008.49
2018-06-02T09:52:57.499Z,1008.49
2018-06-02T09:53:57.505Z,1008.47
2018-06-02T09:54:57.512Z,1008.48
2018-06-02T09:55:57.518Z,1008.50
2018-06-02T09:56:57.525Z,1008.48
2018-06-02T09:57:57.542Z,1008.46
2018-06-02T09:58:57.537Z,1008.45
2018-06-02T09:59:57.543Z,1008.48
2018-06-02T10:00:57.549Z,1008.43
2018-06-02T10:01:57.556Z,1008.44
2018-06-02T10:02:57.562Z,1008.41
2018-06-02T10:03:57.568Z,1008.50
2018-06-02T10:04:57.575Z,1008.48
2018-06-02T10:05:57.581Z,1008.49
2018-06-02T10:06:57.588Z,1008.54
2018-06-02T10:07:57.592Z,1008.55
2018-06-02T10:08:57.600Z,1008.58
2018-06-02T10:09:57.608Z,1008.55
2018-06-02T10:10:57.612Z,1008.55
2018-06-02T10:11:57.617Z,1008.60
2018-06-02T10:12:57.625Z,1008.56
2018-06-02T10:13:57.631Z,1008.54
2018-06-02T10:14:57.637Z,1008.55
2018-06-02T10:15:57.644Z,1008.55
2018-06-02T10:16:57.650Z,1008.57
2018-06-02T10:17:57.656Z,1008.53
2018-06-02T10:18:57.665Z,1008.58
2018-06-02T10:19:57.668Z,1008.60
2018-06-02T10:20:57.674Z,1008.63
2018-06-02T10:21:57.686Z,1008.62
2018-06-02T10:22:57.688Z,1008.60
2018-06-02T10:23:57.697Z,1008.62
2018-06-02T10:24:57.701Z,1008.59
2018-06-02T10:25:57.711Z,1008.63
2018-06-02T10:26:57.715Z,1008.62
2018-06-02T10:27:57.722Z,1008.60
2018-06-02T10:28:57.729Z,1008.57
2018-06-02T10:29:57.742Z,1008.56
2018-06-02T10:30:57.740Z,1008.57
2018-06-02T10:31:57.749Z,1008.48
2018-06-02T10:32:57.753Z,1008.62
2018-06-02T10:33:57.761Z,1008.62
2018-06-02T10:34:57.768Z,1008.61
2018-06-02T10:35:57.775Z,1008.51
2018-06-02T10:36:57.780Z,1008.57
2018-06-02T10:37:57.786Z,1008.52
2018-06-02T10:38:57.793Z,1008.53
2018-06-02T10:39:57.800Z,1008.54
2018-06-02T10:40:57.806Z,1008.52
2018-06-02T10:41:57.813Z,1008.50
2018-06-02T10:42:57.821Z,1008.50
2018-06-02T10:43:57.824Z,1008.54
2018-06-02T10:44:57.837Z,1008.54
2018-06-02T10:45:57.838Z,1008.50
2018-06-02T10:46:57.844Z,1008.56
2018-06-02T10:47:57.848Z,1008.55
2018-06-02T10:48:57.854Z,1008.55
2018-06-02T10:49:57.861Z,1008.53
2018-06-02T10:50:57.867Z,1008.53
2018-06-02T10:51:57.871Z,1008.63
2018-06-02T10:52:57.879Z,1008.56
2018-06-02T10:53:57.884Z,1008.56
2018-06-02T10:54:57.891Z,1008.56
2018-06-02T10:55:57.900Z,1008.64
2018-06-02T10:56:57.902Z,1008.63
2018-06-02T10:57:57.907Z,1008.60
2018-06-02T10:58:57.915Z,1008.64
2018-06-02T10:59:57.921Z,1008.64
2018-06-02T11:00:57.924Z,1008.63
2018-06-02T11:01:57.930Z,1008.65
2018-06-02T11:02:57.936Z,1008.59
2018-06-02T11:03:57.941Z,1008.62
2018-06-02T11:04:57.949Z,1008.61
2018-06-02T11:05:57.953Z,1008.69
2018-06-02T11:06:57.960Z,1008.65
2018-06-02T11:07:57.964Z,1008.72
2018-06-02T11:08:57.971Z,1008.66
2018-06-02T11:09:57.984Z,1008.67
2018-06-02T11:10:57.982Z,1008.65
2018-06-02T11:11:57.995Z,1008.68
2018-06-02T11:12:57.993Z,1008.67
2018-06-02T11:13:58.001Z,1008.64
2018-06-02T11:14:58.005Z,1008.65
2018-06-02T11:15:58.009Z,1008.68
2018-06-02T11:16:58.014Z,1008.68
2018-06-02T11:17:58.022Z,1008.69
2018-06-02T11:18:58.027Z,1008.65
2018-06-02T11:19:58.030Z,1008.62
2018-06-02T11:20:58.036Z,1008.60
2018-06-02T11:21:58.044Z,1008.59
2018-06-02T11:22:58.050Z,1008.63
2018-06-02T11:23:58.054Z,1008.63
2018-06-02T11:24:58.060Z,1008.62
2018-06-02T11:25:58.067Z,1008.67
2018-06-02T11:26:58.071Z,1008.63
2018-06-02T11:27:58.077Z,1008.66
2018-06-02T11:28:58.083Z,1008.64
2018-06-02T11:29:58.089Z,1008.69
2018-06-02T11:30:58.095Z,1008.69
2018-06-02T11:31:58.102Z,1008.67
2018-06-02T11:32:58.106Z,1008.67
2018-06-02T11:33:58.112Z,1008.69
2018-06-02T11:34:58.116Z,1008.71
2018-06-02T11:35:58.122Z,1008.74
2018-06-02T11:36:58.129Z,1008.72
2018-06-02T11:37:58.137Z,1008.77
2018-06-02T11:38:58.139Z,1008.79
2018-06-02T11:39:58.147Z,1008.77
2018-06-02T11:40:58.155Z,1008.79
2018-06-02T11:41:58.158Z,1008.75
2018-06-02T11:42:58.164Z,1008.80
2018-06-02T11:43:58.170Z,1008.74
2018-06-02T11:44:58.176Z,1008.74
2018-06-02T11:45:58.182Z,1008.73
2018-06-02T11:46:58.189Z,1008.71
2018-06-02T11:47:58.195Z,1008.70
2018-06-02T11:48:58.202Z,1008.74
2018-06-02T11:49:58.207Z,1008.74
2018-06-02T11:50:58.214Z,1008.71
2018-06-02T11:51:58.220Z,1008.72
2018-06-02T11:52:58.228Z,1008.72
2018-06-02T11:53:58.234Z,1008.66
2018-06-02T11:54:58.240Z,1008.60
2018-06-02T11:55:58.247Z,1008.61
2018-06-02T11:56:58.253Z,1008.60
2018-06-02T11:57:58.261Z,1008.63
2018-06-02T11:58:58.267Z,1008.67
2018-06-02T11:59:58.273Z,1008.69
2018-06-02T12:00:58.308Z,1008.67
2018-06-02T12:01:58.288Z,1008.66
2018-06-02T12:02:58.297Z,1008.69
2018-06-02T12:03:58.300Z,1008.67
2018-06-02T12:04:58.307Z,1008.66
2018-06-02T12:05:58.314Z,1008.74